sensor_id;sensor_type;location;lat;lon;timestamp;temperature;humidity
8178;DHT22;4130;48.740;9.132;2023-05-24T00:00:48;12.60;99.90
8178;DHT22;4130;48.740;9.132;2023-05-24T00:03:17;12.60;99.90
8178;DHT22;4130;48.740;9.132;2023-05-24T00:05:46;12.90;99.90
8178;DHT22;4130;48.740;9.132;2023-05-24T00:08:13;12.40;99.90
8178;DHT22;4130;48.740;9.132;2023-05-24T00:10:41;12.40;99.90
8178;DHT22;4130;48.740;9.132;2023-05-24T00:13:08;12.30;99.90
8178;DHT22;4130;48.740;9.132;2023-05-24T00:15:35;12.30;99.90
8178;DHT22;4130;48.740;9.132;2023-05-24T00:18:07;12.30;99.90
8178;DHT22;4130;48.740;9.132;2023-05-24T00:20:34;12.20;99.90
8178;DHT22;4130;48.740;9.132;2023-05-24T00:23:02;12.20;99.90
8178;DHT22;4130;48.740;9.132;2023-05-24T00:25:29;12.20;99.90
8178;DHT22;4130;48.740;9.132;2023-05-24T00:27:56;12.20;99.90
8178;DHT22;4130;48.740;9.132;2023-05-24T00:30:24;12.20;99.90
8178;DHT22;4130;48.740;9.132;2023-05-24T00:32:51;12.20;99.90
8178;DHT22;4130;48.740;9.132;2023-05-24T00:35:26;12.10;99.90
8178;DHT22;4130;48.740;9.132;2023-05-24T00:37:53;12.00;99.90
8178;DHT22;4130;48.740;9.132;2023-05-24T00:40:20;12.00;99.90
8178;DHT22;4130;48.740;9.132;2023-05-24T00:42:47;11.90;99.90
8178;DHT22;4130;48.740;9.132;2023-05-24T00:45:16;11.80;99.90
8178;DHT22;4130;48.740;9.132;2023-05-24T00:47:45;11.80;99.90
8178;DHT22;4130;48.740;9.132;2023-05-24T00:50:12;12.20;99.90
8178;DHT22;4130;48.740;9.132;2023-05-24T00:52:43;11.80;99.90
8178;DHT22;4130;48.740;9.132;2023-05-24T00:55:14;11.80;99.90
8178;DHT22;4130;48.740;9.132;2023-05-24T00:57:41;12.50;99.90
8178;DHT22;4130;48.740;9.132;2023-05-24T01:00:09;11.90;99.90
8178;DHT22;4130;48.740;9.132;2023-05-24T01:02:37;11.90;99.90
8178;DHT22;4130;48.740;9.132;2023-05-24T01:05:05;11.90;99.90
8178;DHT22;4130;48.740;9.132;2023-05-24T01:07:38;11.90;99.90
8178;DHT22;4130;48.740;9.132;2023-05-24T01:10:15;13.20;99.90
8178;DHT22;4130;48.740;9.132;2023-05-24T01:12:55;12.00;99.90
8178;DHT22;4130;48.740;9.132;2023-05-24T01:15:29;12.00;99.90
8178;DHT22;4130;48.740;9.132;2023-05-24T01:18:10;12.10;99.90
8178;DHT22;4130;48.740;9.132;2023-05-24T01:20:40;12.00;99.90
8178;DHT22;4130;48.740;9.132;2023-05-24T01:23:30;12.00;99.90
8178;DHT22;4130;48.740;9.132;2023-05-24T01:26:17;11.90;99.90
8178;DHT22;4130;48.740;9.132;2023-05-24T01:28:47;11.90;99.90
8178;DHT22;4130;48.740;9.132;2023-05-24T01:31:17;11.80;99.90
8178;DHT22;4130;48.740;9.132;2023-05-24T01:33:44;11.90;99.90
8178;DHT22;4130;48.740;9.132;2023-05-24T01:36:11;11.90;99.90
8178;DHT22;4130;48.740;9.132;2023-05-24T01:38:38;11.90;99.90
8178;DHT22;4130;48.740;9.132;2023-05-24T01:41:14;11.70;99.90
8178;DHT22;4130;48.740;9.132;2023-05-24T01:43:50;11.60;99.90
8178;DHT22;4130;48.740;9.132;2023-05-24T01:46:27;11.60;99.90
8178;DHT22;4130;48.740;9.132;2023-05-24T01:49:01;11.60;99.90
8178;DHT22;4130;48.740;9.132;2023-05-24T01:51:33;11.50;99.90
8178;DHT22;4130;48.740;9.132;2023-05-24T01:54:03;11.50;99.90
8178;DHT22;4130;48.740;9.132;2023-05-24T01:56:32;11.40;99.90
8178;DHT22;4130;48.740;9.132;2023-05-24T01:59:05;12.70;99.90
8178;DHT22;4130;48.740;9.132;2023-05-24T02:01:35;11.40;99.90
8178;DHT22;4130;48.740;9.132;2023-05-24T02:04:02;11.50;99.90
8178;DHT22;4130;48.740;9.132;2023-05-24T02:06:30;12.60;99.90
8178;DHT22;4130;48.740;9.132;2023-05-24T02:08:58;11.20;99.90
8178;DHT22;4130;48.740;9.132;2023-05-24T02:11:26;11.30;99.90
8178;DHT22;4130;48.740;9.132;2023-05-24T02:13:53;10.90;99.90
8178;DHT22;4130;48.740;9.132;2023-05-24T02:16:27;11.30;99.90
8178;DHT22;4130;48.740;9.132;2023-05-24T02:18:55;10.80;99.90
8178;DHT22;4130;48.740;9.132;2023-05-24T02:21:28;11.40;99.90
8178;DHT22;4130;48.740;9.132;2023-05-24T02:23:57;11.30;99.90
8178;DHT22;4130;48.740;9.132;2023-05-24T02:26:24;12.90;99.90
8178;DHT22;4130;48.740;9.132;2023-05-24T02:28:52;11.30;99.90
8178;DHT22;4130;48.740;9.132;2023-05-24T02:31:19;11.30;99.90
8178;DHT22;4130;48.740;9.132;2023-05-24T02:33:48;11.50;99.90
8178;DHT22;4130;48.740;9.132;2023-05-24T02:36:15;11.50;99.90
8178;DHT22;4130;48.740;9.132;2023-05-24T02:38:42;11.40;99.90
8178;DHT22;4130;48.740;9.132;2023-05-24T02:41:10;11.50;99.90
8178;DHT22;4130;48.740;9.132;2023-05-24T02:43:43;12.60;99.90
8178;DHT22;4130;48.740;9.132;2023-05-24T02:46:11;11.40;99.90
8178;DHT22;4130;48.740;9.132;2023-05-24T02:48:49;11.20;99.90
8178;DHT22;4130;48.740;9.132;2023-05-24T02:51:17;11.30;99.90
8178;DHT22;4130;48.740;9.132;2023-05-24T02:53:58;11.30;99.90
8178;DHT22;4130;48.740;9.132;2023-05-24T02:56:27;11.10;99.90
8178;DHT22;4130;48.740;9.132;2023-05-24T02:59:02;11.20;99.90
8178;DHT22;4130;48.740;9.132;2023-05-24T03:01:34;11.10;99.90
8178;DHT22;4130;48.740;9.132;2023-05-24T03:04:05;11.20;99.90
8178;DHT22;4130;48.740;9.132;2023-05-24T03:06:34;12.00;99.90
8178;DHT22;4130;48.740;9.132;2023-05-24T03:09:01;11.00;99.90
8178;DHT22;4130;48.740;9.132;2023-05-24T03:11:28;10.90;99.90
8178;DHT22;4130;48.740;9.132;2023-05-24T03:13:55;12.60;99.90
8178;DHT22;4130;48.740;9.132;2023-05-24T03:16:23;10.90;99.90
8178;DHT22;4130;48.740;9.132;2023-05-24T03:18:51;10.90;99.90
8178;DHT22;4130;48.740;9.132;2023-05-24T03:21:21;10.90;99.90
8178;DHT22;4130;48.740;9.132;2023-05-24T03:23:49;10.90;99.90
8178;DHT22;4130;48.740;9.132;2023-05-24T03:26:16;11.10;99.90
8178;DHT22;4130;48.740;9.132;2023-05-24T03:28:45;10.70;99.90
8178;DHT22;4130;48.740;9.132;2023-05-24T03:31:15;10.70;99.90
8178;DHT22;4130;48.740;9.132;2023-05-24T03:33:42;11.60;99.90
8178;DHT22;4130;48.740;9.132;2023-05-24T03:36:09;11.40;99.90
8178;DHT22;4130;48.740;9.132;2023-05-24T03:38:37;10.90;99.90
8178;DHT22;4130;48.740;9.132;2023-05-24T03:41:04;12.10;99.90
8178;DHT22;4130;48.740;9.132;2023-05-24T03:43:31;10.80;99.90
8178;DHT22;4130;48.740;9.132;2023-05-24T03:45:57;10.80;99.90
8178;DHT22;4130;48.740;9.132;2023-05-24T03:48:30;10.80;99.90
8178;DHT22;4130;48.740;9.132;2023-05-24T03:50:57;11.60;99.90
8178;DHT22;4130;48.740;9.132;2023-05-24T03:53:24;10.90;99.90
8178;DHT22;4130;48.740;9.132;2023-05-24T03:55:53;10.80;99.90
8178;DHT22;4130;48.740;9.132;2023-05-24T03:58:20;10.80;99.90
8178;DHT22;4130;48.740;9.132;2023-05-24T04:00:50;11.20;99.90
8178;DHT22;4130;48.740;9.132;2023-05-24T04:03:17;10.80;99.90
8178;DHT22;4130;48.740;9.132;2023-05-24T04:05:46;10.80;99.90
8178;DHT22;4130;48.740;9.132;2023-05-24T04:08:14;10.70;99.90
8178;DHT22;4130;48.740;9.132;2023-05-24T04:10:41;10.70;99.90
8178;DHT22;4130;48.740;9.132;2023-05-24T04:13:10;11.50;99.90
8178;DHT22;4130;48.740;9.132;2023-05-24T04:15:38;10.60;99.90
8178;DHT22;4130;48.740;9.132;2023-05-24T04:18:05;11.40;99.90
8178;DHT22;4130;48.740;9.132;2023-05-24T04:20:33;10.60;99.90
8178;DHT22;4130;48.740;9.132;2023-05-24T04:23:06;10.60;99.90
8178;DHT22;4130;48.740;9.132;2023-05-24T04:25:37;10.60;99.90
8178;DHT22;4130;48.740;9.132;2023-05-24T04:28:07;10.70;99.90
8178;DHT22;4130;48.740;9.132;2023-05-24T04:30:41;10.70;99.90
8178;DHT22;4130;48.740;9.132;2023-05-24T04:33:12;10.70;99.90
8178;DHT22;4130;48.740;9.132;2023-05-24T04:35:42;10.80;99.90
8178;DHT22;4130;48.740;9.132;2023-05-24T04:38:12;10.80;99.90
8178;DHT22;4130;48.740;9.132;2023-05-24T04:40:44;10.80;99.90
8178;DHT22;4130;48.740;9.132;2023-05-24T04:43:15;10.80;99.90
8178;DHT22;4130;48.740;9.132;2023-05-24T04:45:46;10.80;99.90
8178;DHT22;4130;48.740;9.132;2023-05-24T04:48:13;10.80;99.90
8178;DHT22;4130;48.740;9.132;2023-05-24T04:50:39;10.90;99.90
8178;DHT22;4130;48.740;9.132;2023-05-24T04:53:06;11.00;99.90
8178;DHT22;4130;48.740;9.132;2023-05-24T04:55:33;12.10;99.90
8178;DHT22;4130;48.740;9.132;2023-05-24T04:58:00;10.90;99.90
8178;DHT22;4130;48.740;9.132;2023-05-24T05:00:27;10.80;99.90
8178;DHT22;4130;48.740;9.132;2023-05-24T05:02:57;11.40;99.90
8178;DHT22;4130;48.740;9.132;2023-05-24T05:05:24;10.80;99.90
8178;DHT22;4130;48.740;9.132;2023-05-24T05:07:51;10.90;99.90
8178;DHT22;4130;48.740;9.132;2023-05-24T05:10:17;10.90;99.90
8178;DHT22;4130;48.740;9.132;2023-05-24T05:12:44;10.90;99.90
8178;DHT22;4130;48.740;9.132;2023-05-24T05:15:11;11.00;99.90
8178;DHT22;4130;48.740;9.132;2023-05-24T05:17:38;11.10;99.90
8178;DHT22;4130;48.740;9.132;2023-05-24T05:20:07;11.10;99.90
8178;DHT22;4130;48.740;9.132;2023-05-24T05:22:34;11.10;99.90
8178;DHT22;4130;48.740;9.132;2023-05-24T05:25:00;11.20;99.90
8178;DHT22;4130;48.740;9.132;2023-05-24T05:27:29;11.30;99.90
8178;DHT22;4130;48.740;9.132;2023-05-24T05:29:56;11.20;99.90
8178;DHT22;4130;48.740;9.132;2023-05-24T05:32:24;11.20;99.90
8178;DHT22;4130;48.740;9.132;2023-05-24T05:34:51;11.20;99.90
8178;DHT22;4130;48.740;9.132;2023-05-24T05:37:19;11.30;99.90
8178;DHT22;4130;48.740;9.132;2023-05-24T05:39:46;11.30;99.90
8178;DHT22;4130;48.740;9.132;2023-05-24T05:42:13;11.30;99.90
8178;DHT22;4130;48.740;9.132;2023-05-24T05:44:40;11.30;99.90
8178;DHT22;4130;48.740;9.132;2023-05-24T05:47:07;11.40;99.90
8178;DHT22;4130;48.740;9.132;2023-05-24T05:49:35;11.60;99.90
8178;DHT22;4130;48.740;9.132;2023-05-24T05:52:01;11.80;99.90
8178;DHT22;4130;48.740;9.132;2023-05-24T05:54:31;11.70;99.90
8178;DHT22;4130;48.740;9.132;2023-05-24T05:56:58;11.70;99.90
8178;DHT22;4130;48.740;9.132;2023-05-24T05:59:25;11.70;99.90
8178;DHT22;4130;48.740;9.132;2023-05-24T06:01:53;12.20;99.90
8178;DHT22;4130;48.740;9.132;2023-05-24T06:04:20;11.90;99.90
8178;DHT22;4130;48.740;9.132;2023-05-24T06:06:47;11.90;99.90
8178;DHT22;4130;48.740;9.132;2023-05-24T06:09:14;12.00;99.90
8178;DHT22;4130;48.740;9.132;2023-05-24T06:11:42;12.00;99.90
8178;DHT22;4130;48.740;9.132;2023-05-24T06:14:09;12.50;99.90
8178;DHT22;4130;48.740;9.132;2023-05-24T06:16:37;12.30;99.90
8178;DHT22;4130;48.740;9.132;2023-05-24T06:19:06;12.40;99.90
8178;DHT22;4130;48.740;9.132;2023-05-24T06:21:39;12.60;99.90
8178;DHT22;4130;48.740;9.132;2023-05-24T06:24:12;12.60;99.90
8178;DHT22;4130;48.740;9.132;2023-05-24T06:26:46;12.70;99.90
8178;DHT22;4130;48.740;9.132;2023-05-24T06:29:13;12.80;99.90
8178;DHT22;4130;48.740;9.132;2023-05-24T06:31:46;13.00;99.90
8178;DHT22;4130;48.740;9.132;2023-05-24T06:34:17;12.90;99.90
8178;DHT22;4130;48.740;9.132;2023-05-24T06:36:46;13.10;99.90
8178;DHT22;4130;48.740;9.132;2023-05-24T06:39:13;13.20;99.90
8178;DHT22;4130;48.740;9.132;2023-05-24T06:41:40;13.20;99.90
8178;DHT22;4130;48.740;9.132;2023-05-24T06:44:09;13.20;99.90
8178;DHT22;4130;48.740;9.132;2023-05-24T06:46:36;13.20;99.90
8178;DHT22;4130;48.740;9.132;2023-05-24T06:49:03;13.20;99.90
8178;DHT22;4130;48.740;9.132;2023-05-24T06:51:31;13.10;99.90
8178;DHT22;4130;48.740;9.132;2023-05-24T06:54:01;13.10;99.90
8178;DHT22;4130;48.740;9.132;2023-05-24T06:56:28;13.10;99.90
8178;DHT22;4130;48.740;9.132;2023-05-24T06:58:55;13.00;99.90
8178;DHT22;4130;48.740;9.132;2023-05-24T07:01:23;13.20;99.90
8178;DHT22;4130;48.740;9.132;2023-05-24T07:03:51;13.10;99.90
8178;DHT22;4130;48.740;9.132;2023-05-24T07:06:18;13.10;99.90
8178;DHT22;4130;48.740;9.132;2023-05-24T07:08:45;13.20;99.90
8178;DHT22;4130;48.740;9.132;2023-05-24T07:11:12;13.10;99.90
8178;DHT22;4130;48.740;9.132;2023-05-24T07:13:41;13.00;99.90
8178;DHT22;4130;48.740;9.132;2023-05-24T07:16:09;12.90;99.90
8178;DHT22;4130;48.740;9.132;2023-05-24T07:18:38;12.90;99.90
8178;DHT22;4130;48.740;9.132;2023-05-24T07:21:06;12.80;99.90
8178;DHT22;4130;48.740;9.132;2023-05-24T07:23:32;12.80;99.90
8178;DHT22;4130;48.740;9.132;2023-05-24T07:25:59;12.70;99.90
8178;DHT22;4130;48.740;9.132;2023-05-24T07:28:26;12.80;99.90
8178;DHT22;4130;48.740;9.132;2023-05-24T07:30:53;13.00;99.90
8178;DHT22;4130;48.740;9.132;2023-05-24T07:33:20;12.80;99.90
8178;DHT22;4130;48.740;9.132;2023-05-24T07:35:48;13.60;99.90
8178;DHT22;4130;48.740;9.132;2023-05-24T07:38:16;12.70;99.90
8178;DHT22;4130;48.740;9.132;2023-05-24T07:40:43;12.70;99.90
8178;DHT22;4130;48.740;9.132;2023-05-24T07:43:09;12.70;99.90
8178;DHT22;4130;48.740;9.132;2023-05-24T07:45:36;12.60;99.90
8178;DHT22;4130;48.740;9.132;2023-05-24T07:48:03;12.90;99.90
8178;DHT22;4130;48.740;9.132;2023-05-24T07:50:30;12.60;99.90
8178;DHT22;4130;48.740;9.132;2023-05-24T07:52:58;12.70;99.90
8178;DHT22;4130;48.740;9.132;2023-05-24T07:55:25;12.80;99.90
8178;DHT22;4130;48.740;9.132;2023-05-24T07:57:52;12.90;99.90
8178;DHT22;4130;48.740;9.132;2023-05-24T08:00:22;12.90;99.90
8178;DHT22;4130;48.740;9.132;2023-05-24T08:02:52;13.00;99.90
8178;DHT22;4130;48.740;9.132;2023-05-24T08:05:19;13.00;99.90
8178;DHT22;4130;48.740;9.132;2023-05-24T08:07:46;13.10;99.90
8178;DHT22;4130;48.740;9.132;2023-05-24T08:10:15;13.30;99.90
8178;DHT22;4130;48.740;9.132;2023-05-24T08:12:43;13.40;99.90
8178;DHT22;4130;48.740;9.132;2023-05-24T08:15:10;13.40;99.90
8178;DHT22;4130;48.740;9.132;2023-05-24T08:17:39;13.50;99.90
8178;DHT22;4130;48.740;9.132;2023-05-24T08:20:07;13.60;99.90
8178;DHT22;4130;48.740;9.132;2023-05-24T08:22:34;13.60;99.90
8178;DHT22;4130;48.740;9.132;2023-05-24T08:25:01;13.60;99.90
8178;DHT22;4130;48.740;9.132;2023-05-24T08:27:32;13.80;99.90
8178;DHT22;4130;48.740;9.132;2023-05-24T08:29:59;14.00;99.90
8178;DHT22;4130;48.740;9.132;2023-05-24T08:32:26;13.30;99.90
8178;DHT22;4130;48.740;9.132;2023-05-24T08:34:52;13.20;99.90
8178;DHT22;4130;48.740;9.132;2023-05-24T08:37:20;14.10;99.90
8178;DHT22;4130;48.740;9.132;2023-05-24T08:39:47;13.20;99.90
8178;DHT22;4130;48.740;9.132;2023-05-24T08:42:15;13.20;99.90
8178;DHT22;4130;48.740;9.132;2023-05-24T08:44:47;13.10;99.90
8178;DHT22;4130;48.740;9.132;2023-05-24T08:47:19;13.10;99.90
8178;DHT22;4130;48.740;9.132;2023-05-24T08:49:46;13.90;99.90
8178;DHT22;4130;48.740;9.132;2023-05-24T08:52:14;13.00;99.90
8178;DHT22;4130;48.740;9.132;2023-05-24T08:54:42;13.20;99.90
8178;DHT22;4130;48.740;9.132;2023-05-24T08:57:09;13.40;99.90
8178;DHT22;4130;48.740;9.132;2023-05-24T08:59:37;13.60;99.90
8178;DHT22;4130;48.740;9.132;2023-05-24T09:02:09;14.10;99.90
8178;DHT22;4130;48.740;9.132;2023-05-24T09:04:39;13.90;99.90
8178;DHT22;4130;48.740;9.132;2023-05-24T09:07:09;14.00;99.90
8178;DHT22;4130;48.740;9.132;2023-05-24T09:09:40;14.20;99.90
8178;DHT22;4130;48.740;9.132;2023-05-24T09:12:10;14.30;99.90
8178;DHT22;4130;48.740;9.132;2023-05-24T09:14:45;14.40;99.90
8178;DHT22;4130;48.740;9.132;2023-05-24T09:17:13;14.50;99.90
8178;DHT22;4130;48.740;9.132;2023-05-24T09:19:43;14.30;99.90
8178;DHT22;4130;48.740;9.132;2023-05-24T09:22:12;15.50;99.90
8178;DHT22;4130;48.740;9.132;2023-05-24T09:24:42;14.60;99.90
8178;DHT22;4130;48.740;9.132;2023-05-24T09:27:13;14.60;99.90
8178;DHT22;4130;48.740;9.132;2023-05-24T09:29:41;14.40;99.90
8178;DHT22;4130;48.740;9.132;2023-05-24T09:32:11;14.50;99.90
8178;DHT22;4130;48.740;9.132;2023-05-24T09:34:40;14.50;99.90
8178;DHT22;4130;48.740;9.132;2023-05-24T09:37:10;14.40;99.90
8178;DHT22;4130;48.740;9.132;2023-05-24T09:39:39;14.30;99.90
8178;DHT22;4130;48.740;9.132;2023-05-24T09:42:07;14.20;99.90
8178;DHT22;4130;48.740;9.132;2023-05-24T09:44:34;14.10;99.90
8178;DHT22;4130;48.740;9.132;2023-05-24T09:47:02;13.90;99.90
8178;DHT22;4130;48.740;9.132;2023-05-24T09:49:30;13.90;99.90
8178;DHT22;4130;48.740;9.132;2023-05-24T09:51:58;13.50;99.90
8178;DHT22;4130;48.740;9.132;2023-05-24T09:54:25;13.30;99.90
8178;DHT22;4130;48.740;9.132;2023-05-24T09:56:52;13.30;99.90
8178;DHT22;4130;48.740;9.132;2023-05-24T09:59:19;13.30;99.90
8178;DHT22;4130;48.740;9.132;2023-05-24T10:01:45;13.40;99.90
8178;DHT22;4130;48.740;9.132;2023-05-24T10:04:18;15.20;99.90
8178;DHT22;4130;48.740;9.132;2023-05-24T10:06:45;14.00;99.90
8178;DHT22;4130;48.740;9.132;2023-05-24T10:09:14;13.40;99.90
8178;DHT22;4130;48.740;9.132;2023-05-24T10:11:41;13.40;99.90
8178;DHT22;4130;48.740;9.132;2023-05-24T10:14:08;13.40;99.90
8178;DHT22;4130;48.740;9.132;2023-05-24T10:16:35;13.30;99.90
8178;DHT22;4130;48.740;9.132;2023-05-24T10:19:03;13.30;99.90
8178;DHT22;4130;48.740;9.132;2023-05-24T10:21:30;13.30;99.90
8178;DHT22;4130;48.740;9.132;2023-05-24T10:23:59;13.30;99.90
8178;DHT22;4130;48.740;9.132;2023-05-24T10:26:30;13.30;99.90
8178;DHT22;4130;48.740;9.132;2023-05-24T10:29:02;13.30;99.90
8178;DHT22;4130;48.740;9.132;2023-05-24T10:31:32;13.30;99.90
8178;DHT22;4130;48.740;9.132;2023-05-24T10:34:02;13.30;99.90
8178;DHT22;4130;48.740;9.132;2023-05-24T10:36:31;13.30;99.90
8178;DHT22;4130;48.740;9.132;2023-05-24T10:38:58;13.20;99.90
8178;DHT22;4130;48.740;9.132;2023-05-24T10:41:27;13.30;99.90
8178;DHT22;4130;48.740;9.132;2023-05-24T10:43:57;13.20;99.90
8178;DHT22;4130;48.740;9.132;2023-05-24T10:46:24;13.30;99.90
8178;DHT22;4130;48.740;9.132;2023-05-24T10:48:58;13.30;99.90
8178;DHT22;4130;48.740;9.132;2023-05-24T10:51:31;13.20;99.90
8178;DHT22;4130;48.740;9.132;2023-05-24T10:54:16;13.10;99.90
8178;DHT22;4130;48.740;9.132;2023-05-24T10:56:47;13.20;99.90
8178;DHT22;4130;48.740;9.132;2023-05-24T10:59:28;13.20;99.90
8178;DHT22;4130;48.740;9.132;2023-05-24T11:01:59;13.40;99.90
8178;DHT22;4130;48.740;9.132;2023-05-24T11:04:32;13.60;99.90
8178;DHT22;4130;48.740;9.132;2023-05-24T11:07:03;15.00;99.90
8178;DHT22;4130;48.740;9.132;2023-05-24T11:09:32;13.60;99.60
8178;DHT22;4130;48.740;9.132;2023-05-24T11:12:03;13.60;99.90
8178;DHT22;4130;48.740;9.132;2023-05-24T11:14:37;14.60;99.90
8178;DHT22;4130;48.740;9.132;2023-05-24T11:17:05;14.30;99.30
8178;DHT22;4130;48.740;9.132;2023-05-24T11:19:34;14.30;98.70
8178;DHT22;4130;48.740;9.132;2023-05-24T11:22:03;14.40;98.30
8178;DHT22;4130;48.740;9.132;2023-05-24T11:24:31;14.70;98.00
8178;DHT22;4130;48.740;9.132;2023-05-24T11:26:59;14.90;98.10
8178;DHT22;4130;48.740;9.132;2023-05-24T11:29:27;15.20;98.60
8178;DHT22;4130;48.740;9.132;2023-05-24T11:31:56;15.40;98.10
8178;DHT22;4130;48.740;9.132;2023-05-24T11:34:28;15.60;96.80
8178;DHT22;4130;48.740;9.132;2023-05-24T11:36:58;15.70;97.60
8178;DHT22;4130;48.740;9.132;2023-05-24T11:39:28;15.70;98.50
8178;DHT22;4130;48.740;9.132;2023-05-24T11:41:57;15.60;97.50
8178;DHT22;4130;48.740;9.132;2023-05-24T11:44:28;15.60;97.30
8178;DHT22;4130;48.740;9.132;2023-05-24T11:46:59;15.30;96.60
8178;DHT22;4130;48.740;9.132;2023-05-24T11:49:27;14.90;95.60
8178;DHT22;4130;48.740;9.132;2023-05-24T11:51:54;14.50;97.00
8178;DHT22;4130;48.740;9.132;2023-05-24T11:54:22;14.30;96.50
8178;DHT22;4130;48.740;9.132;2023-05-24T11:56:48;14.50;97.10
8178;DHT22;4130;48.740;9.132;2023-05-24T11:59:16;15.00;96.50
8178;DHT22;4130;48.740;9.132;2023-05-24T12:01:46;15.50;96.30
8178;DHT22;4130;48.740;9.132;2023-05-24T12:04:21;16.10;97.40
8178;DHT22;4130;48.740;9.132;2023-05-24T12:06:48;16.80;95.80
8178;DHT22;4130;48.740;9.132;2023-05-24T12:09:15;17.20;94.90
8178;DHT22;4130;48.740;9.132;2023-05-24T12:11:46;17.40;95.30
8178;DHT22;4130;48.740;9.132;2023-05-24T12:14:15;17.30;95.30
8178;DHT22;4130;48.740;9.132;2023-05-24T12:16:43;17.30;95.30
8178;DHT22;4130;48.740;9.132;2023-05-24T12:19:15;17.70;93.90
8178;DHT22;4130;48.740;9.132;2023-05-24T12:21:47;18.20;93.10
8178;DHT22;4130;48.740;9.132;2023-05-24T12:24:16;18.20;91.60
8178;DHT22;4130;48.740;9.132;2023-05-24T12:26:48;18.40;92.60
8178;DHT22;4130;48.740;9.132;2023-05-24T12:29:16;19.00;92.90
8178;DHT22;4130;48.740;9.132;2023-05-24T12:31:47;19.20;90.70
8178;DHT22;4130;48.740;9.132;2023-05-24T12:34:16;19.90;91.10
8178;DHT22;4130;48.740;9.132;2023-05-24T12:36:44;20.00;89.80
8178;DHT22;4130;48.740;9.132;2023-05-24T12:39:18;20.70;85.70
8178;DHT22;4130;48.740;9.132;2023-05-24T12:41:49;19.40;83.20
8178;DHT22;4130;48.740;9.132;2023-05-24T12:44:16;19.40;90.80
8178;DHT22;4130;48.740;9.132;2023-05-24T12:46:46;19.40;91.10
8178;DHT22;4130;48.740;9.132;2023-05-24T12:49:13;19.50;89.00
8178;DHT22;4130;48.740;9.132;2023-05-24T12:51:40;19.40;90.50
8178;DHT22;4130;48.740;9.132;2023-05-24T12:54:08;19.40;90.70
8178;DHT22;4130;48.740;9.132;2023-05-24T12:56:34;19.80;91.60
8178;DHT22;4130;48.740;9.132;2023-05-24T12:59:02;20.00;90.80
8178;DHT22;4130;48.740;9.132;2023-05-24T13:01:30;19.50;89.60
8178;DHT22;4130;48.740;9.132;2023-05-24T13:03:56;19.80;90.10
8178;DHT22;4130;48.740;9.132;2023-05-24T13:06:24;19.90;87.70
8178;DHT22;4130;48.740;9.132;2023-05-24T13:08:52;19.90;87.90
8178;DHT22;4130;48.740;9.132;2023-05-24T13:11:20;19.90;86.70
8178;DHT22;4130;48.740;9.132;2023-05-24T13:13:47;21.00;88.90
8178;DHT22;4130;48.740;9.132;2023-05-24T13:16:14;20.50;89.60
8178;DHT22;4130;48.740;9.132;2023-05-24T13:18:41;20.80;90.90
8178;DHT22;4130;48.740;9.132;2023-05-24T13:21:07;20.60;88.50
8178;DHT22;4130;48.740;9.132;2023-05-24T13:23:35;20.60;88.80
8178;DHT22;4130;48.740;9.132;2023-05-24T13:26:03;20.20;88.20
8178;DHT22;4130;48.740;9.132;2023-05-24T13:28:33;20.20;87.50
8178;DHT22;4130;48.740;9.132;2023-05-24T13:31:00;19.90;85.80
8178;DHT22;4130;48.740;9.132;2023-05-24T13:33:27;19.60;86.30
8178;DHT22;4130;48.740;9.132;2023-05-24T13:35:54;18.50;86.80
8178;DHT22;4130;48.740;9.132;2023-05-24T13:38:21;18.10;90.00
8178;DHT22;4130;48.740;9.132;2023-05-24T13:40:48;18.20;90.50
8178;DHT22;4130;48.740;9.132;2023-05-24T13:43:15;18.40;90.00
8178;DHT22;4130;48.740;9.132;2023-05-24T13:45:55;19.00;90.70
8178;DHT22;4130;48.740;9.132;2023-05-24T13:48:22;18.50;90.40
8178;DHT22;4130;48.740;9.132;2023-05-24T13:50:51;19.50;89.90
8178;DHT22;4130;48.740;9.132;2023-05-24T13:53:18;19.60;89.50
8178;DHT22;4130;48.740;9.132;2023-05-24T13:55:46;18.90;89.90
8178;DHT22;4130;48.740;9.132;2023-05-24T13:58:13;19.60;90.40
8178;DHT22;4130;48.740;9.132;2023-05-24T14:00:40;19.50;90.00
8178;DHT22;4130;48.740;9.132;2023-05-24T14:03:09;18.20;88.80
8178;DHT22;4130;48.740;9.132;2023-05-24T14:05:37;17.90;87.90
8178;DHT22;4130;48.740;9.132;2023-05-24T14:08:05;18.10;89.50
8178;DHT22;4130;48.740;9.132;2023-05-24T14:10:33;18.40;89.90
8178;DHT22;4130;48.740;9.132;2023-05-24T14:13:01;18.20;88.10
8178;DHT22;4130;48.740;9.132;2023-05-24T14:15:30;17.80;88.90
8178;DHT22;4130;48.740;9.132;2023-05-24T14:17:59;17.60;87.90
8178;DHT22;4130;48.740;9.132;2023-05-24T14:20:33;17.60;87.60
8178;DHT22;4130;48.740;9.132;2023-05-24T14:23:01;17.70;89.50
8178;DHT22;4130;48.740;9.132;2023-05-24T14:25:28;18.10;89.00
8178;DHT22;4130;48.740;9.132;2023-05-24T14:27:56;18.10;87.60
8178;DHT22;4130;48.740;9.132;2023-05-24T14:30:22;18.10;89.00
8178;DHT22;4130;48.740;9.132;2023-05-24T14:32:49;18.10;90.10
8178;DHT22;4130;48.740;9.132;2023-05-24T14:35:21;17.80;89.40
8178;DHT22;4130;48.740;9.132;2023-05-24T14:37:49;17.60;88.60
8178;DHT22;4130;48.740;9.132;2023-05-24T14:40:18;17.40;88.10
8178;DHT22;4130;48.740;9.132;2023-05-24T14:42:45;17.30;90.10
8178;DHT22;4130;48.740;9.132;2023-05-24T14:45:12;17.30;88.40
8178;DHT22;4130;48.740;9.132;2023-05-24T14:47:38;17.30;88.60
8178;DHT22;4130;48.740;9.132;2023-05-24T14:50:15;17.70;85.60
8178;DHT22;4130;48.740;9.132;2023-05-24T14:52:46;18.10;89.10
8178;DHT22;4130;48.740;9.132;2023-05-24T14:55:15;16.80;89.10
8178;DHT22;4130;48.740;9.132;2023-05-24T14:57:42;16.50;89.90
8178;DHT22;4130;48.740;9.132;2023-05-24T15:00:10;16.50;90.40
8178;DHT22;4130;48.740;9.132;2023-05-24T15:02:37;16.30;90.60
8178;DHT22;4130;48.740;9.132;2023-05-24T15:05:05;16.40;89.90
8178;DHT22;4130;48.740;9.132;2023-05-24T15:07:32;16.70;88.80
8178;DHT22;4130;48.740;9.132;2023-05-24T15:09:59;17.00;85.40
8178;DHT22;4130;48.740;9.132;2023-05-24T15:12:28;17.30;87.30
8178;DHT22;4130;48.740;9.132;2023-05-24T15:14:57;17.40;87.80
8178;DHT22;4130;48.740;9.132;2023-05-24T15:17:24;17.30;85.50
8178;DHT22;4130;48.740;9.132;2023-05-24T15:19:50;17.00;86.00
8178;DHT22;4130;48.740;9.132;2023-05-24T15:22:18;16.90;87.80
8178;DHT22;4130;48.740;9.132;2023-05-24T15:24:44;17.00;88.40
8178;DHT22;4130;48.740;9.132;2023-05-24T15:27:11;17.40;87.90
8178;DHT22;4130;48.740;9.132;2023-05-24T15:29:40;17.70;87.40
8178;DHT22;4130;48.740;9.132;2023-05-24T15:32:06;18.20;86.00
8178;DHT22;4130;48.740;9.132;2023-05-24T15:34:33;18.60;84.90
8178;DHT22;4130;48.740;9.132;2023-05-24T15:37:00;18.80;88.20
8178;DHT22;4130;48.740;9.132;2023-05-24T15:39:27;18.90;87.20
8178;DHT22;4130;48.740;9.132;2023-05-24T15:41:53;18.90;86.70
8178;DHT22;4130;48.740;9.132;2023-05-24T15:44:28;19.10;86.50
8178;DHT22;4130;48.740;9.132;2023-05-24T15:46:58;19.00;85.90
8178;DHT22;4130;48.740;9.132;2023-05-24T15:49:27;19.10;86.20
8178;DHT22;4130;48.740;9.132;2023-05-24T15:51:55;19.20;84.70
8178;DHT22;4130;48.740;9.132;2023-05-24T15:54:22;18.60;85.40
8178;DHT22;4130;48.740;9.132;2023-05-24T15:56:49;18.30;87.40
8178;DHT22;4130;48.740;9.132;2023-05-24T15:59:16;17.80;85.90
8178;DHT22;4130;48.740;9.132;2023-05-24T16:01:49;18.00;85.60
8178;DHT22;4130;48.740;9.132;2023-05-24T16:04:17;17.50;87.70
8178;DHT22;4130;48.740;9.132;2023-05-24T16:06:44;16.90;87.90
8178;DHT22;4130;48.740;9.132;2023-05-24T16:09:11;16.80;87.40
8178;DHT22;4130;48.740;9.132;2023-05-24T16:11:38;16.80;86.40